Time;durP1;ratioP1;P1;durP2;ratioP2;P2;SDS_P1;SDS_P2;PMS_P1;PMS_P2;Temp;Humidity;BMP_temperature;BMP_pressure;BME280_temperature;BME280_humidity;BME280_pressure;Samples;Min_cycle;Max_cycle;Signal;HPM_P1;HPM_P2
2021/03/04 00:00:35;;;;;;;28.97;16.37;;;5.50;66.30;;;;;;6269000;22;20396;-96
2021/03/04 00:03:46;;;;;;;28.23;15.93;;;5.50;66.00;;;;;;6244947;22;20479;-96
2021/03/04 00:06:29;;;;;;;31.33;16.13;;;5.50;66.50;;;;;;6272174;22;20387;-96
2021/03/04 00:09:32;;;;;;;27.63;15.70;;;5.50;67.00;;;;;;6293703;22;20372;-96
2021/03/04 00:15:56;;;;;;;30.50;16.42;;;5.40;67.60;;;;;;6091850;23;20388;-96
2021/03/04 00:24:15;;;;;;;28.52;16.35;;;5.30;70.30;;;;;;6262160;22;20446;-96
2021/03/04 00:29:37;;;;;;;29.92;16.70;;;5.30;70.50;;;;;;6291674;22;20384;-96
2021/03/04 00:32:21;;;;;;;27.08;16.20;;;5.30;70.70;;;;;;6251791;22;20955;-96
2021/03/04 00:35:07;;;;;;;30.13;17.08;;;5.40;71.00;;;;;;6271161;22;20380;-96
2021/03/04 00:37:36;;;;;;;33.33;17.73;;;5.50;71.30;;;;;;6298322;22;20388;-96
2021/03/04 00:40:18;;;;;;;29.75;16.90;;;5.50;71.10;;;;;;6265601;22;20701;-95
2021/03/04 00:42:53;;;;;;;30.45;17.38;;;5.50;70.50;;;;;;6257848;22;20453;-95
2021/03/04 00:49:27;;;;;;;29.20;17.25;;;5.40;70.20;;;;;;6130133;23;20392;-96
2021/03/04 00:59:57;;;;;;;34.80;17.40;;;5.50;72.20;;;;;;6123048;22;20399;-95
2021/03/04 01:02:31;;;;;;;30.40;17.60;;;5.60;71.70;;;;;;6261747;22;20418;-95
2021/03/04 01:05:23;;;;;;;30.70;17.85;;;5.60;71.80;;;;;;6261829;22;20388;-96
2021/03/04 01:08:03;;;;;;;34.78;18.58;;;5.60;72.50;;;;;;6258773;22;20833;-96
2021/03/04 01:10:49;;;;;;;29.05;17.48;;;5.60;72.30;;;;;;6254376;22;20391;-96
2021/03/04 01:13:21;;;;;;;32.42;18.02;;;5.50;72.40;;;;;;6256823;22;20845;-96
2021/03/04 01:15:49;;;;;;;31.93;18.90;;;5.40;72.90;;;;;;6259436;22;20384;-96
2021/03/04 01:22:31;;;;;;;31.65;18.92;;;5.40;74.80;;;;;;6221031;23;20392;-96
2021/03/04 01:25:09;;;;;;;32.72;18.38;;;5.30;75.60;;;;;;6196064;23;20387;-96
2021/03/04 01:27:54;;;;;;;;;;;;;;;;;;;;;
2021/03/04 01:30:35;;;;;;;35.47;20.27;;;5.30;76.90;;;;;;6220923;23;20863;-96
2021/03/04 01:33:38;;;;;;;31.57;18.80;;;5.30;77.60;;;;;;6197521;23;20407;-96
2021/03/04 01:36:08;;;;;;;31.25;18.92;;;5.30;78.30;;;;;;6195869;23;20409;-96
2021/03/04 01:38:40;;;;;;;32.58;19.73;;;5.30;78.50;;;;;;6195198;23;20388;-96
2021/03/04 01:41:23;;;;;;;31.42;19.15;;;5.30;78.80;;;;;;6196396;23;20383;-96
2021/03/04 01:43:53;;;;;;;32.40;19.63;;;5.30;79.20;;;;;;6199310;23;20418;-96
2021/03/04 01:46:23;;;;;;;30.30;19.40;;;5.20;79.00;;;;;;6200966;23;20455;-96
2021/03/04 01:49:02;;;;;;;31.23;19.40;;;5.30;79.70;;;;;;6204735;23;20379;-96
2021/03/04 01:51:40;;;;;;;34.40;19.58;;;5.20;79.70;;;;;;6202162;23;20451;-96
2021/03/04 01:54:17;;;;;;;31.88;18.25;;;5.20;80.00;;;;;;6197960;23;20396;-96
2021/03/04 01:56:48;;;;;;;29.65;18.65;;;5.20;80.00;;;;;;6223074;23;20442;-96
2021/03/04 01:59:42;;;;;;;29.65;19.85;;;5.30;79.80;;;;;;6235502;22;20415;-96
2021/03/04 02:09:40;;;;;;;32.72;19.48;;;5.10;81.50;;;;;;6044423;23;20408;-96
2021/03/04 02:12:23;;;;;;;31.83;19.75;;;5.10;81.40;;;;;;6021260;23;20398;-96
2021/03/04 02:14:52;;;;;;;31.10;18.52;;;5.20;81.60;;;;;;6024805;23;20429;-96
2021/03/04 02:17:31;;;;;;;29.43;19.43;;;5.30;82.00;;;;;;6028388;23;20426;-96
2021/03/04 02:20:34;;;;;;;31.63;19.15;;;5.30;81.80;;;;;;6014575;23;20392;-96
2021/03/04 02:23:42;;;;;;;34.30;20.33;;;5.30;82.20;;;;;;6003171;23;20438;-96
2021/03/04 02:26:22;;;;;;;31.00;19.98;;;5.20;82.60;;;;;;5998465;23;20987;-96
2021/03/04 02:29:26;;;;;;;35.20;20.58;;;5.20;82.40;;;;;;6026007;23;20396;-96
2021/03/04 02:32:27;;;;;;;38.42;21.00;;;5.30;82.20;;;;;;6005186;23;20392;-96
2021/03/04 02:35:43;;;;;;;32.47;21.17;;;5.10;82.70;;;;;;6018606;23;20469;-96
2021/03/04 02:38:30;;;;;;;32.33;20.35;;;5.10;83.10;;;;;;6034967;23;20552;-96
2021/03/04 02:41:15;;;;;;;31.25;21.00;;;5.10;83.40;;;;;;6069096;23;20385;-96
2021/03/04 02:44:17;;;;;;;34.35;21.13;;;5.00;83.50;;;;;;6143115;23;20412;-96
2021/03/04 02:47:00;;;;;;;34.38;19.92;;;5.00;84.40;;;;;;6120462;23;20396;-96
2021/03/04 02:49:59;;;;;;;32.65;21.67;;;5.00;84.80;;;;;;6117010;23;20439;-96
2021/03/04 02:52:45;;;;;;;32.75;21.35;;;5.00;85.00;;;;;;6113381;23;20402;-96
2021/03/04 02:55:17;;;;;;;36.60;22.23;;;4.90;84.80;;;;;;6116338;23;20395;-96
2021/03/04 02:57:56;;;;;;;35.17;22.85;;;4.90;84.90;;;;;;6116527;23;20389;-96
2021/03/04 03:00:34;;;;;;;32.63;21.02;;;4.90;85.30;;;;;;6108690;23;20409;-96
2021/03/04 03:03:24;;;;;;;36.70;21.08;;;5.00;85.30;;;;;;6138724;23;20425;-96
2021/03/04 03:06:27;;;;;;;34.10;22.10;;;5.10;85.00;;;;;;6267972;22;20388;-96
2021/03/04 03:08:57;;;;;;;33.78;21.58;;;5.10;84.80;;;;;;6239471;22;20887;-96
2021/03/04 03:11:44;;;;;;;36.72;22.25;;;5.10;84.70;;;;;;6248535;22;20447;-96
2021/03/04 03:14:16;;;;;;;34.25;22.70;;;5.00;85.00;;;;;;6268612;22;20387;-96
2021/03/04 03:17:01;;;;;;;34.97;22.40;;;5.00;85.00;;;;;;6293961;22;20376;-96
2021/03/04 03:19:55;;;;;;;33.80;23.27;;;5.00;85.20;;;;;;6268246;22;20479;-96
2021/03/04 03:22:32;;;;;;;37.92;24.15;;;4.80;85.80;;;;;;6268135;22;20419;-96
2021/03/04 03:25:20;;;;;;;40.60;23.83;;;4.80;85.80;;;;;;6249214;22;20398;-96
2021/03/04 03:28:35;;;;;;;;;;;;;;;;;;;;;
2021/03/04 03:31:47;;;;;;;38.85;23.77;;;4.80;86.50;;;;;;6290503;22;20435;-96
2021/03/04 03:35:18;;;;;;;39.88;25.63;;;4.80;86.60;;;;;;6242156;22;20379;-96
2021/03/04 03:38:15;;;;;;;39.10;25.90;;;4.80;86.90;;;;;;6264473;22;20414;-96
2021/03/04 03:41:06;;;;;;;38.17;25.58;;;4.70;87.30;;;;;;6272737;22;20376;-96
2021/03/04 03:44:17;;;;;;;35.92;25.42;;;4.80;87.20;;;;;;6294991;22;20483;-96
2021/03/04 03:47:46;;;;;;;40.33;26.55;;;4.70;87.50;;;;;;6123204;23;20378;-96
2021/03/04 03:51:43;;;;;;;;;;;;;;;;;;;;;
2021/03/04 03:54:15;;;;;;;39.22;26.15;;;4.40;88.60;;;;;;6111289;23;20382;-96
2021/03/04 03:57:02;;;;;;;37.67;25.67;;;4.20;88.20;;;;;;6089971;23;20387;-96
2021/03/04 03:59:34;;;;;;;38.47;26.88;;;4.00;87.80;;;;;;6106031;23;20432;-96
2021/03/04 04:02:04;;;;;;;43.05;26.45;;;4.00;88.00;;;;;;6082481;23;20388;-96
2021/03/04 04:04:37;;;;;;;41.78;27.25;;;3.80;88.90;;;;;;6092280;23;20395;-96
2021/03/04 04:07:19;;;;;;;38.55;26.48;;;3.90;89.00;;;;;;6148769;23;20434;-96
2021/03/04 04:09:52;;;;;;;41.88;26.20;;;3.90;88.60;;;;;;6146046;23;20417;-96
2021/03/04 04:12:25;;;;;;;39.53;26.58;;;3.80;88.90;;;;;;6208750;23;20440;-96
2021/03/04 04:14:59;;;;;;;41.97;27.45;;;3.70;89.90;;;;;;6242411;22;20389;-96
2021/03/04 04:17:26;;;;;;;40.40;27.27;;;3.80;89.70;;;;;;6263290;22;20415;-96
2021/03/04 04:20:22;;;;;;;42.75;28.17;;;3.70;89.80;;;;;;6212637;23;20413;-96
2021/03/04 04:22:57;;;;;;;45.15;29.23;;;3.70;90.20;;;;;;6262139;23;20448;-96
2021/03/04 04:25:46;;;;;;;49.15;29.58;;;3.70;90.30;;;;;;6236781;23;20397;-96
2021/03/04 04:28:17;;;;;;;47.90;31.02;;;3.60;90.50;;;;;;6256880;23;20411;-96
2021/03/04 04:30:49;;;;;;;49.28;31.35;;;3.60;90.60;;;;;;6237647;23;20378;-96
2021/03/04 04:33:17;;;;;;;46.78;32.17;;;3.40;91.00;;;;;;6237129;23;20381;-96
2021/03/04 04:38:56;;;;;;;53.05;34.17;;;3.50;91.10;;;;;;6224501;23;21231;-96
2021/03/04 04:41:26;;;;;;;51.47;33.00;;;3.50;91.90;;;;;;6227551;23;20426;-96
2021/03/04 04:44:11;;;;;;;49.55;32.85;;;3.70;92.00;;;;;;6231725;23;20399;-96
2021/03/04 04:46:52;;;;;;;46.40;33.03;;;3.90;91.60;;;;;;6236833;23;20384;-96
2021/03/04 04:49:20;;;;;;;50.47;33.77;;;4.10;91.40;;;;;;6232716;23;20368;-96
2021/03/04 04:52:04;;;;;;;47.83;33.38;;;4.20;91.50;;;;;;6234029;23;20392;-96
2021/03/04 05:00:42;;;;;;;48.83;34.55;;;4.40;91.00;;;;;;6324919;22;20389;-96
2021/03/04 05:03:20;;;;;;;47.40;33.90;;;4.40;90.90;;;;;;6274949;22;20400;-96
2021/03/04 05:05:55;;;;;;;50.47;34.27;;;4.40;90.70;;;;;;6269111;22;20372;-96
2021/03/04 05:08:40;;;;;;;48.00;33.50;;;4.50;90.60;;;;;;6247560;22;20372;-96
2021/03/04 05:11:27;;;;;;;50.43;34.57;;;4.50;90.50;;;;;;6228155;22;20394;-96
2021/03/04 05:14:09;;;;;;;49.90;34.97;;;4.50;90.50;;;;;;6271829;22;20462;-96
2021/03/04 05:16:36;;;;;;;52.85;35.60;;;4.50;90.50;;;;;;6242494;22;20408;-96
2021/03/04 05:19:13;;;;;;;58.55;38.33;;;4.50;90.50;;;;;;6270179;22;20396;-96
2021/03/04 05:21:59;;;;;;;51.55;37.38;;;4.40;90.60;;;;;;6229450;22;20463;-96
2021/03/04 05:24:54;;;;;;;56.20;38.15;;;4.30;91.00;;;;;;6275903;22;20368;-96
2021/03/04 05:27:37;;;;;;;57.03;38.47;;;4.30;91.40;;;;;;6294411;22;20415;-96
2021/03/04 05:30:29;;;;;;;51.22;36.85;;;4.30;91.20;;;;;;6269948;22;20364;-96
2021/03/04 05:32:56;;;;;;;49.70;35.90;;;4.30;91.30;;;;;;6264242;22;20462;-96
2021/03/04 05:35:27;;;;;;;50.83;35.75;;;4.30;91.40;;;;;;6263244;22;20853;-96
2021/03/04 05:37:55;;;;;;;55.75;37.80;;;4.30;91.30;;;;;;6237636;22;20381;-96
2021/03/04 05:40:35;;;;;;;54.50;37.80;;;4.40;91.30;;;;;;6266275;22;20404;-96
2021/03/04 05:43:05;;;;;;;53.35;38.75;;;4.40;91.40;;;;;;6291896;22;20395;-96
2021/03/04 05:45:34;;;;;;;53.25;36.92;;;4.20;91.50;;;;;;6263610;22;20415;-96
2021/03/04 05:48:26;;;;;;;52.85;37.55;;;4.40;91.50;;;;;;6265336;22;20464;-96
2021/03/04 05:50:57;;;;;;;57.63;37.28;;;4.40;91.30;;;;;;6241329;22;20400;-96
2021/03/04 05:53:51;;;;;;;55.22;38.72;;;4.30;91.40;;;;;;6265595;22;20400;-96
2021/03/04 05:56:21;;;;;;;57.38;38.83;;;4.40;91.50;;;;;;6264686;22;20392;-96
2021/03/04 05:59:14;;;;;;;52.90;37.30;;;4.30;91.70;;;;;;6266266;22;20387;-96
2021/03/04 06:02:27;;;;;;;52.80;37.53;;;4.30;91.70;;;;;;6262704;22;20429;-96
2021/03/04 06:05:13;;;;;;;53.83;37.45;;;4.30;91.80;;;;;;6117443;23;20393;-96
2021/03/04 06:07:48;;;;;;;53.30;38.50;;;4.40;91.70;;;;;;6112159;23;20512;-96
2021/03/04 06:10:16;;;;;;;53.03;38.20;;;4.40;91.70;;;;;;6136694;23;20469;-96
2021/03/04 06:12:45;;;;;;;54.28;37.63;;;4.50;91.20;;;;;;6092143;23;20924;-96
2021/03/04 06:15:30;;;;;;;53.08;36.72;;;4.60;90.90;;;;;;6117284;23;20404;-96
2021/03/04 06:18:24;;;;;;;51.67;37.15;;;4.50;91.10;;;;;;6094740;23;20408;-96
2021/03/04 06:21:21;;;;;;;65.68;37.95;;;4.60;91.00;;;;;;6138356;23;20454;-96
2021/03/04 06:29:56;;;;;;;47.30;34.53;;;4.70;90.70;;;;;;6313382;22;20394;-95
2021/03/04 06:32:23;;;;;;;53.47;35.88;;;4.70;90.90;;;;;;6266136;22;20430;-96
2021/03/04 06:35:26;;;;;;;55.33;36.25;;;4.60;91.10;;;;;;6267303;22;20407;-96
2021/03/04 06:38:31;;;;;;;53.30;36.33;;;4.60;91.10;;;;;;6192828;23;20993;-96
2021/03/04 06:41:03;;;;;;;51.43;36.53;;;4.60;91.30;;;;;;6187388;23;20449;-96
2021/03/04 06:43:36;;;;;;;54.95;36.88;;;4.60;91.20;;;;;;6187805;23;20484;-96
2021/03/04 06:46:16;;;;;;;58.67;39.00;;;4.50;91.30;;;;;;6186576;23;20392;-96
2021/03/04 06:48:53;;;;;;;52.75;36.47;;;4.50;91.20;;;;;;6186215;23;20373;-95
2021/03/04 06:51:51;;;;;;;;;;;;;;;;;;;;;
2021/03/04 07:53:04;;;;;;;44.47;31.25;;;5.50;88.10;;;;;;6243181;22;20378;-96
2021/03/04 07:55:50;;;;;;;44.30;29.88;;;5.40;87.70;;;;;;6223128;23;20446;-96
2021/03/04 08:00:57;;;;;;;42.40;29.70;;;5.50;87.70;;;;;;6196506;23;20389;-96
2021/03/04 08:04:06;;;;;;;41.60;29.30;;;5.60;86.70;;;;;;6171474;23;20404;-96
2021/03/04 08:07:03;;;;;;;46.88;30.50;;;5.60;86.20;;;;;;6169086;23;20413;-96
2021/03/04 08:09:36;;;;;;;47.88;29.33;;;5.60;86.70;;;;;;6162650;23;20393;-96
2021/03/04 08:12:10;;;;;;;43.47;28.65;;;5.60;85.90;;;;;;6165097;23;20393;-96
2021/03/04 08:14:40;;;;;;;45.70;29.75;;;5.70;85.90;;;;;;6168597;23;20389;-96
2021/03/04 08:17:14;;;;;;;47.22;28.55;;;5.80;86.20;;;;;;6175887;23;20798;-96
2021/03/04 08:19:48;;;;;;;45.30;29.08;;;5.80;85.20;;;;;;6169182;23;20413;-96
2021/03/04 08:22:21;;;;;;;51.42;29.33;;;5.80;85.20;;;;;;6160924;23;20412;-96
2021/03/04 08:24:48;;;;;;;44.35;29.60;;;5.80;84.90;;;;;;6161765;23;20464;-96
2021/03/04 12:21:59;;;;;;;42.15;26.08;;;7.10;86.00;;;;;;6270454;22;20481;-96
2021/03/04 13:02:10;;;;;;;37.72;19.05;;;7.40;73.50;;;;;;6288045;22;20396;-96
2021/03/04 13:04:44;;;;;;;35.97;19.02;;;7.50;73.70;;;;;;6195420;22;20381;-96
2021/03/04 13:10:00;;;;;;;39.20;19.77;;;8.00;70.80;;;;;;6279486;22;20396;-96
2021/03/04 13:15:45;;;;;;;35.67;19.00;;;8.20;72.80;;;;;;6292259;22;20402;-96
2021/03/04 13:19:35;;;;;;;34.53;18.35;;;8.30;71.60;;;;;;6123983;23;20389;-96
2021/03/04 13:27:23;;;;;;;;;;;;;;;;;;;;;
2021/03/04 14:14:08;;;;;;;37.77;18.20;;;8.30;71.40;;;;;;6217661;23;20451;-96
2021/03/04 14:17:27;;;;;;;32.60;16.23;;;8.40;71.60;;;;;;6190607;23;20716;-95
2021/03/04 14:24:12;;;;;;;35.13;16.75;;;8.50;70.20;;;;;;6229586;23;20401;-95
2021/03/04 14:31:22;;;;;;;32.45;16.55;;;8.10;68.70;;;;;;5972349;24;20401;-96
2021/03/04 14:33:57;;;;;;;32.70;14.77;;;7.90;69.50;;;;;;5947081;24;20398;-96
2021/03/04 14:37:05;;;;;;;36.67;17.10;;;7.80;68.90;;;;;;5947110;24;20899;-96
2021/03/04 14:43:06;;;;;;;35.08;17.23;;;7.70;69.20;;;;;;5944603;24;20416;-96
2021/03/04 14:45:58;;;;;;;26.90;13.63;;;7.70;68.10;;;;;;5922519;24;20420;-96
2021/03/04 14:49:17;;;;;;;;;;;;;;;;;;;;;
2021/03/04 14:58:41;;;;;;;33.10;13.50;;;7.80;66.20;;;;;;6264754;22;20373;-95
2021/03/04 21:00:52;;;;;;;21.83;9.30;;;6.10;72.10;;;;;;6182905;22;20388;-96
2021/03/04 21:03:53;;;;;;;19.80;8.98;;;6.00;72.40;;;;;;6176741;23;20392;-96
2021/03/04 21:07:02;;;;;;;21.15;9.73;;;6.00;72.30;;;;;;6155842;23;20874;-96
2021/03/04 21:09:29;;;;;;;30.45;10.15;;;6.00;72.70;;;;;;6192030;23;20726;-96
2021/03/04 23:47:32;;;;;;;;;;;;;;;;;;;;;
2021/03/04 23:50:58;;;;;;;26.83;13.37;;;4.60;86.00;;;;;;6300096;22;20383;-96
2021/03/04 23:53:54;;;;;;;30.48;13.80;;;4.40;86.10;;;;;;6261518;23;20477;-96
2021/03/04 23:56:47;;;;;;;24.38;13.25;;;4.50;85.70;;;;;;6277636;22;20397;-96
2021/03/04 23:59:46;;;;;;;23.98;13.38;;;4.40;85.80;;;;;;6254671;22;20407;-96
